createdAt,value
2022-09-25T00:01:01.590Z,28.02
2022-09-25T00:03:30.155Z,25.23
2022-09-25T00:06:09.326Z,25.10
2022-09-25T00:08:36.963Z,22.65
2022-09-25T00:11:09.020Z,23.00
2022-09-25T00:13:36.125Z,26.08
2022-09-25T00:16:03.172Z,23.95
2022-09-25T00:18:29.754Z,22.50
2022-09-25T00:21:02.303Z,24.20
2022-09-25T00:23:28.807Z,23.83
2022-09-25T00:25:55.150Z,24.13
2022-09-25T00:28:21.672Z,25.10
2022-09-25T00:30:48.050Z,26.15
2022-09-25T00:33:14.456Z,25.80
2022-09-25T00:35:41.124Z,24.23
2022-09-25T00:38:07.427Z,24.05
2022-09-25T00:40:33.878Z,26.75
2022-09-25T00:43:00.359Z,25.90
2022-09-25T00:45:26.697Z,28.05
2022-09-25T00:48:00.935Z,27.00
2022-09-25T00:50:31.087Z,27.55
2022-09-25T00:53:03.175Z,31.27
2022-09-25T00:55:31.579Z,29.15
2022-09-25T00:58:02.248Z,27.88
2022-09-25T01:00:28.898Z,28.95
2022-09-25T01:02:56.622Z,28.77
2022-09-25T01:05:33.404Z,31.10
2022-09-25T01:08:01.516Z,32.13
2022-09-25T01:10:28.945Z,32.35
2022-09-25T01:12:57.654Z,31.92
2022-09-25T01:15:36.210Z,30.98
2022-09-25T01:18:05.383Z,30.48
2022-09-25T01:20:47.831Z,29.83
2022-09-25T01:23:46.476Z,29.20
2022-09-25T01:26:43.749Z,30.00
2022-09-25T01:29:22.535Z,26.70
2022-09-25T01:32:20.315Z,27.83
2022-09-25T01:35:11.229Z,26.05
2022-09-25T01:40:20.301Z,23.52
2022-09-25T01:42:57.347Z,22.45
2022-09-25T01:45:29.498Z,20.83
2022-09-25T01:47:59.610Z,24.83
2022-09-25T01:50:34.764Z,21.67
2022-09-25T01:53:04.321Z,21.95
2022-09-25T01:55:36.929Z,23.15
2022-09-25T01:58:10.784Z,22.08
2022-09-25T02:00:43.032Z,22.13
2022-09-25T02:03:20.741Z,21.95
2022-09-25T02:05:53.630Z,21.55
2022-09-25T02:08:31.917Z,23.63
2022-09-25T02:11:01.545Z,22.13
2022-09-25T02:13:42.185Z,22.98
2022-09-25T02:16:20.375Z,21.90
2022-09-25T02:18:48.526Z,20.65
2022-09-25T02:21:28.531Z,19.15
2022-09-25T02:24:20.034Z,17.20
2022-09-25T02:26:46.895Z,17.00
2022-09-25T02:29:13.510Z,18.00
2022-09-25T02:31:48.149Z,16.95
2022-09-25T02:34:17.980Z,17.00
2022-09-25T02:36:44.537Z,19.75
2022-09-25T02:39:13.911Z,17.42
2022-09-25T02:41:43.200Z,20.52
2022-09-25T02:44:37.260Z,19.52
2022-09-25T02:47:10.148Z,19.52
2022-09-25T02:49:55.661Z,20.35
2022-09-25T02:52:49.499Z,20.50
2022-09-25T02:55:25.108Z,20.27
2022-09-25T02:57:56.987Z,20.58
2022-09-25T03:00:23.536Z,20.52
2022-09-25T03:02:56.451Z,21.77
2022-09-25T03:05:25.152Z,21.25
2022-09-25T03:07:55.243Z,21.73
2022-09-25T03:10:23.108Z,22.15
2022-09-25T03:12:49.549Z,22.25
2022-09-25T03:15:17.300Z,23.60
2022-09-25T03:17:43.815Z,23.38
2022-09-25T03:20:10.153Z,23.02
2022-09-25T03:22:36.792Z,22.35
2022-09-25T03:25:04.840Z,22.40
2022-09-25T03:27:31.375Z,22.15
2022-09-25T03:29:58.065Z,20.67
2022-09-25T03:32:24.483Z,19.60
2022-09-25T03:34:50.817Z,21.15
2022-09-25T03:37:17.288Z,20.67
2022-09-25T03:39:43.666Z,19.33
2022-09-25T03:42:10.107Z,18.05
2022-09-25T03:44:36.435Z,18.20
2022-09-25T03:47:03.053Z,18.92
2022-09-25T03:49:29.297Z,19.60
2022-09-25T03:51:55.674Z,18.73
2022-09-25T03:54:22.064Z,19.10
2022-09-25T03:56:48.580Z,17.60
2022-09-25T03:59:15.137Z,18.98
2022-09-25T04:01:41.787Z,18.10
2022-09-25T04:04:09.563Z,17.92
2022-09-25T04:06:35.959Z,17.45
2022-09-25T04:09:02.314Z,17.00
2022-09-25T04:11:28.659Z,18.50
2022-09-25T04:13:54.964Z,18.17
2022-09-25T04:16:21.596Z,16.80
2022-09-25T04:18:48.448Z,18.52
2022-09-25T04:21:15.479Z,18.45
2022-09-25T04:23:42.689Z,20.10
2022-09-25T04:26:09.571Z,18.70
2022-09-25T04:28:36.388Z,19.10
2022-09-25T04:31:03.872Z,20.17
2022-09-25T04:33:30.419Z,19.58
2022-09-25T04:35:56.892Z,19.70
2022-09-25T04:38:23.771Z,18.98
2022-09-25T04:40:50.352Z,20.88
2022-09-25T04:43:16.820Z,21.30
2022-09-25T04:45:43.154Z,23.73
2022-09-25T04:48:09.700Z,21.67
2022-09-25T04:50:36.177Z,19.30
2022-09-25T04:53:03.429Z,19.13
2022-09-25T04:55:29.941Z,18.23
2022-09-25T04:58:01.088Z,16.88
2022-09-25T05:00:29.882Z,17.35
2022-09-25T05:02:57.046Z,18.63
2022-09-25T05:05:23.639Z,17.45
2022-09-25T05:07:57.263Z,20.33
2022-09-25T05:10:28.586Z,17.73
2022-09-25T05:12:56.666Z,18.95
2022-09-25T05:15:23.115Z,18.15
2022-09-25T05:17:49.944Z,18.48
2022-09-25T05:20:16.529Z,17.95
2022-09-25T05:22:42.968Z,16.40
2022-09-25T05:25:09.572Z,16.10
2022-09-25T05:27:36.136Z,18.35
2022-09-25T05:30:02.561Z,17.10
2022-09-25T05:32:28.885Z,16.75
2022-09-25T05:34:55.182Z,17.38
2022-09-25T05:37:21.569Z,16.30
2022-09-25T05:39:48.021Z,16.40
2022-09-25T05:42:14.426Z,16.95
2022-09-25T05:44:40.855Z,16.48
2022-09-25T05:47:07.500Z,16.58
2022-09-25T05:49:34.149Z,16.15
2022-09-25T05:52:00.787Z,15.25
2022-09-25T05:54:27.022Z,17.70
2022-09-25T05:56:53.390Z,17.30
2022-09-25T05:59:19.797Z,15.80
2022-09-25T06:01:46.512Z,15.15
2022-09-25T06:04:13.237Z,16.75
2022-09-25T06:06:39.614Z,14.57
2022-09-25T06:09:06.179Z,15.25
2022-09-25T06:11:32.802Z,14.02
2022-09-25T06:13:59.430Z,14.52
2022-09-25T06:16:25.795Z,15.93
2022-09-25T06:18:52.527Z,16.20
2022-09-25T06:21:18.927Z,14.82
2022-09-25T06:23:45.262Z,15.38
2022-09-25T06:26:11.748Z,15.23
2022-09-25T06:28:38.280Z,14.48
2022-09-25T06:31:05.470Z,16.60
2022-09-25T06:33:32.213Z,15.57
2022-09-25T06:35:58.819Z,14.43
2022-09-25T06:38:25.293Z,13.68
2022-09-25T06:40:52.110Z,14.48
2022-09-25T06:43:18.685Z,13.57
2022-09-25T06:45:45.133Z,13.57
2022-09-25T06:48:14.461Z,13.55
2022-09-25T06:50:47.393Z,13.77
2022-09-25T06:53:14.992Z,12.43
2022-09-25T06:55:42.842Z,13.57
2022-09-25T06:58:13.093Z,14.45
2022-09-25T07:00:39.486Z,15.15
2022-09-25T07:03:06.142Z,13.45
2022-09-25T07:05:33.189Z,12.63
2022-09-25T07:07:59.749Z,13.55
2022-09-25T07:10:26.403Z,13.93
2022-09-25T07:12:52.815Z,12.77
2022-09-25T07:15:19.148Z,13.00
2022-09-25T07:17:45.833Z,13.48
2022-09-25T07:20:13.616Z,13.02
2022-09-25T07:22:40.586Z,12.15
2022-09-25T07:25:07.973Z,12.55
2022-09-25T07:27:34.558Z,11.98
2022-09-25T07:30:01.728Z,12.48
2022-09-25T07:32:28.470Z,12.02
2022-09-25T07:34:56.062Z,13.30
2022-09-25T07:37:22.390Z,12.32
2022-09-25T07:39:48.714Z,12.05
2022-09-25T07:42:15.201Z,12.50
2022-09-25T07:44:46.015Z,13.15
2022-09-25T07:47:14.801Z,12.35
2022-09-25T07:49:41.568Z,11.82
2022-09-25T07:52:07.921Z,12.63
2022-09-25T07:54:34.274Z,11.18
2022-09-25T07:57:02.036Z,11.15
2022-09-25T07:59:28.404Z,10.35
2022-09-25T08:01:54.925Z,10.80
2022-09-25T08:04:21.421Z,8.57
2022-09-25T08:06:47.789Z,9.60
2022-09-25T08:09:14.426Z,11.35
2022-09-25T08:11:40.759Z,12.25
2022-09-25T08:14:07.218Z,11.80
2022-09-25T08:16:33.840Z,12.45
2022-09-25T08:19:00.245Z,11.23
2022-09-25T08:21:26.665Z,10.77
2022-09-25T08:23:53.736Z,12.15
2022-09-25T08:26:21.659Z,11.35
2022-09-25T08:28:49.118Z,12.75
2022-09-25T08:31:15.781Z,12.75
2022-09-25T08:33:46.894Z,12.38
2022-09-25T08:36:13.825Z,10.82
2022-09-25T08:38:40.143Z,11.27
2022-09-25T08:41:21.595Z,12.32
2022-09-25T08:44:26.075Z,11.05
2022-09-25T08:46:57.953Z,12.98
2022-09-25T08:49:28.199Z,11.65
2022-09-25T08:52:01.610Z,12.30
2022-09-25T08:54:31.431Z,11.50
2022-09-25T08:57:00.946Z,10.65
2022-09-25T08:59:34.676Z,13.65
2022-09-25T09:02:13.635Z,12.20
2022-09-25T09:04:58.586Z,11.80
2022-09-25T09:07:36.596Z,13.52
2022-09-25T09:10:25.412Z,10.40
2022-09-25T09:12:59.520Z,13.35
2022-09-25T09:15:34.760Z,13.07
2022-09-25T09:18:09.269Z,12.98
2022-09-25T09:21:04.764Z,11.27
2022-09-25T09:23:41.482Z,12.65
2022-09-25T09:26:34.106Z,12.70
2022-09-25T09:29:18.598Z,12.57
2022-09-25T09:32:01.355Z,12.95
2022-09-25T09:35:05.806Z,13.48
2022-09-25T09:38:01.047Z,13.05
2022-09-25T09:40:58.699Z,14.85
2022-09-25T09:43:43.689Z,12.07
2022-09-25T09:46:30.578Z,12.48
2022-09-25T09:49:08.849Z,11.27
2022-09-25T09:51:42.923Z,11.80
2022-09-25T09:54:19.251Z,11.50
2022-09-25T09:56:49.671Z,11.93
2022-09-25T09:59:20.058Z,10.90
2022-09-25T10:01:57.342Z,9.55
2022-09-25T10:04:30.057Z,10.00
2022-09-25T10:07:03.273Z,10.35
2022-09-25T10:09:29.847Z,8.70
2022-09-25T10:12:13.510Z,8.75
2022-09-25T10:14:44.757Z,8.52
2022-09-25T10:17:11.907Z,8.82
2022-09-25T10:19:53.355Z,10.27
2022-09-25T10:22:23.840Z,9.27
2022-09-25T10:24:58.914Z,8.00
2022-09-25T10:27:28.266Z,9.35
2022-09-25T10:30:09.613Z,8.57
2022-09-25T10:32:57.243Z,9.57
2022-09-25T10:35:29.550Z,9.18
2022-09-25T10:38:00.446Z,9.27
2022-09-25T10:40:34.698Z,8.75
2022-09-25T10:43:07.137Z,7.85
2022-09-25T10:45:36.411Z,9.10
2022-09-25T10:48:24.144Z,9.25
2022-09-25T10:51:08.450Z,7.78
2022-09-25T10:53:35.408Z,8.98
2022-09-25T10:56:08.046Z,9.85
2022-09-25T10:58:43.151Z,8.52
2022-09-25T11:01:11.697Z,10.40
2022-09-25T11:03:47.858Z,9.50
2022-09-25T11:06:22.449Z,9.23
2022-09-25T11:09:05.298Z,8.38
2022-09-25T11:11:31.813Z,8.02
2022-09-25T11:14:01.825Z,7.60
2022-09-25T11:16:45.763Z,8.88
2022-09-25T11:19:19.531Z,7.53
2022-09-25T11:21:56.105Z,7.22
2022-09-25T11:24:44.349Z,8.00
2022-09-25T11:27:37.862Z,6.38
2022-09-25T11:30:06.505Z,7.28
2022-09-25T11:33:03.182Z,7.28
2022-09-25T11:35:47.565Z,6.55
2022-09-25T11:38:44.756Z,6.13
2022-09-25T11:41:27.899Z,9.52
2022-09-25T11:44:10.092Z,8.38
2022-09-25T11:46:51.360Z,8.15
2022-09-25T11:49:39.328Z,8.45
2022-09-25T11:52:20.255Z,8.23
2022-09-25T11:55:03.578Z,9.00
2022-09-25T11:57:48.774Z,9.55
2022-09-25T12:00:22.886Z,8.98
2022-09-25T12:03:30.778Z,11.20
2022-09-25T12:06:16.882Z,10.88
2022-09-25T12:09:01.868Z,9.68
2022-09-25T12:11:40.143Z,9.73
2022-09-25T12:14:31.326Z,10.45
2022-09-25T12:17:09.843Z,11.35
2022-09-25T12:19:55.875Z,12.07
2022-09-25T12:22:50.932Z,11.95
2022-09-25T12:25:50.602Z,12.15
2022-09-25T12:28:54.414Z,12.45
2022-09-25T12:31:58.136Z,11.80
2022-09-25T12:35:09.626Z,12.88
2022-09-25T12:37:42.292Z,13.55
2022-09-25T12:40:20.430Z,12.60
2022-09-25T12:42:57.090Z,13.30
2022-09-25T12:45:45.746Z,12.00
2022-09-25T12:48:44.530Z,11.98
2022-09-25T12:51:29.739Z,10.82
2022-09-25T12:54:00.418Z,12.90
2022-09-25T12:59:18.276Z,13.95
2022-09-25T13:01:56.005Z,14.30
2022-09-25T13:04:59.386Z,16.38
2022-09-25T13:07:49.794Z,16.02
2022-09-25T13:10:33.786Z,15.95
2022-09-25T13:13:04.106Z,13.30
2022-09-25T13:15:34.603Z,16.17
2022-09-25T13:18:01.512Z,15.00
2022-09-25T13:20:27.857Z,13.27
2022-09-25T13:23:13.378Z,15.13
2022-09-25T13:26:02.267Z,13.98
2022-09-25T13:28:36.906Z,15.15
2022-09-25T13:31:21.165Z,12.85
2022-09-25T13:33:55.348Z,14.73
2022-09-25T13:36:21.675Z,13.90
2022-09-25T13:38:47.997Z,15.95
2022-09-25T13:41:15.022Z,15.40
2022-09-25T13:43:41.632Z,16.58
2022-09-25T13:46:17.205Z,15.85
2022-09-25T13:48:44.220Z,15.60
2022-09-25T13:51:22.871Z,14.98
2022-09-25T13:54:10.131Z,15.13
2022-09-25T13:56:47.253Z,12.77
2022-09-25T13:59:13.809Z,12.90
2022-09-25T14:01:48.113Z,14.65
2022-09-25T14:04:14.649Z,13.85
2022-09-25T14:06:43.197Z,15.13
2022-09-25T14:09:31.409Z,14.77
2022-09-25T14:12:13.804Z,15.10
2022-09-25T14:14:47.555Z,16.33
2022-09-25T14:17:16.237Z,15.68
2022-09-25T14:19:45.336Z,15.82
2022-09-25T14:22:21.895Z,14.73
2022-09-25T14:24:48.268Z,12.52
2022-09-25T14:27:22.089Z,13.75
2022-09-25T14:29:48.716Z,15.98
2022-09-25T14:32:54.154Z,15.40
2022-09-25T14:35:20.676Z,14.48
2022-09-25T14:37:53.055Z,13.18
2022-09-25T14:40:34.491Z,13.70
2022-09-25T14:43:22.625Z,12.65
2022-09-25T14:46:07.640Z,13.40
2022-09-25T14:49:12.749Z,14.30
2022-09-25T14:51:46.197Z,12.80
2022-09-25T14:54:18.596Z,13.15
2022-09-25T14:56:47.565Z,15.00
2022-09-25T14:59:18.874Z,13.15
2022-09-25T15:01:49.092Z,10.60
2022-09-25T15:04:27.208Z,10.15
2022-09-25T15:07:03.250Z,9.05
2022-09-25T15:09:41.042Z,9.43
2022-09-25T15:12:23.719Z,9.02
2022-09-25T15:15:13.328Z,8.48
2022-09-25T15:17:50.986Z,8.80
2022-09-25T15:20:20.828Z,8.80
2022-09-25T15:23:00.015Z,8.93
2022-09-25T15:25:31.482Z,8.93
2022-09-25T15:27:58.498Z,9.57
2022-09-25T15:30:28.382Z,8.93
2022-09-25T15:33:00.557Z,8.82
2022-09-25T15:35:30.294Z,9.45
2022-09-25T15:38:13.914Z,8.50
2022-09-25T15:40:40.550Z,8.13
2022-09-25T15:43:14.575Z,9.18
2022-09-25T15:45:50.039Z,8.20
2022-09-25T15:48:29.732Z,8.90
2022-09-25T15:50:58.901Z,6.95
2022-09-25T15:53:32.435Z,6.20
2022-09-25T15:56:06.507Z,6.47
2022-09-25T15:58:42.597Z,6.55
2022-09-25T16:01:13.920Z,7.10
2022-09-25T16:03:51.216Z,6.80
2022-09-25T16:06:18.441Z,6.53
2022-09-25T16:08:45.195Z,7.00
2022-09-25T16:11:17.348Z,6.32
2022-09-25T16:13:45.532Z,6.47
2022-09-25T16:16:21.890Z,5.85
2022-09-25T16:18:48.606Z,6.15
2022-09-25T16:21:38.372Z,5.90
2022-09-25T16:24:06.826Z,5.63
2022-09-25T16:26:39.591Z,5.60
2022-09-25T16:29:16.547Z,6.75
2022-09-25T16:31:44.845Z,5.55
2022-09-25T16:34:39.147Z,5.55
2022-09-25T16:37:08.136Z,5.40
2022-09-25T16:39:37.034Z,5.28
2022-09-25T16:42:26.723Z,5.50
2022-09-25T16:45:02.806Z,5.57
2022-09-25T16:47:29.919Z,5.93
2022-09-25T16:49:56.956Z,5.88
2022-09-25T16:52:28.793Z,5.72
2022-09-25T16:54:55.804Z,5.78
2022-09-25T16:57:26.806Z,6.03
2022-09-25T16:59:53.676Z,5.22
2022-09-25T17:02:27.065Z,6.43
2022-09-25T17:04:53.547Z,6.50
2022-09-25T17:07:19.991Z,5.57
2022-09-25T17:09:47.106Z,5.82
2022-09-25T17:12:20.062Z,4.22
2022-09-25T17:14:47.448Z,5.55
2022-09-25T17:17:17.425Z,4.20
2022-09-25T17:19:43.944Z,4.47
2022-09-25T17:22:10.364Z,4.30
2022-09-25T17:24:39.663Z,3.92
2022-09-25T17:27:14.044Z,4.82
2022-09-25T17:29:41.723Z,5.95
2022-09-25T17:32:16.964Z,4.35
2022-09-25T17:34:45.545Z,3.90
2022-09-25T17:37:12.073Z,3.60
2022-09-25T17:39:38.636Z,4.45
2022-09-25T17:42:05.191Z,4.05
2022-09-25T17:44:31.579Z,4.13
2022-09-25T17:46:57.962Z,4.35
2022-09-25T17:49:24.437Z,3.97
2022-09-25T17:51:51.448Z,4.32
2022-09-25T17:54:18.073Z,4.85
2022-09-25T17:56:44.537Z,3.72
2022-09-25T17:59:11.301Z,5.25
2022-09-25T18:01:39.783Z,4.45
2022-09-25T18:04:24.327Z,4.75
2022-09-25T18:06:51.268Z,4.38
2022-09-25T18:09:17.834Z,4.75
2022-09-25T18:11:44.509Z,5.13
2022-09-25T18:14:12.576Z,5.05
2022-09-25T18:16:41.683Z,4.88
2022-09-25T18:19:15.623Z,5.22
2022-09-25T18:21:42.083Z,4.97
2022-09-25T18:24:08.443Z,5.05
2022-09-25T18:26:34.801Z,5.47
2022-09-25T18:29:01.339Z,5.30
2022-09-25T18:31:27.867Z,4.72
2022-09-25T18:33:54.189Z,5.78
2022-09-25T18:36:21.710Z,4.72
2022-09-25T18:38:48.201Z,4.57
2022-09-25T18:41:14.703Z,4.22
2022-09-25T18:43:41.112Z,4.57
2022-09-25T18:46:07.535Z,5.07
2022-09-25T18:48:34.017Z,5.13
2022-09-25T18:51:00.624Z,5.72
2022-09-25T18:53:27.366Z,5.20
2022-09-25T18:55:55.275Z,5.65
2022-09-25T18:58:21.595Z,6.50
2022-09-25T19:00:47.918Z,7.15
2022-09-25T19:03:14.392Z,7.47
2022-09-25T19:05:40.884Z,7.65
2022-09-25T19:08:07.473Z,7.63
2022-09-25T19:10:33.813Z,8.48
2022-09-25T19:13:02.165Z,8.30
2022-09-25T19:15:28.586Z,9.65
2022-09-25T19:17:55.626Z,9.07
2022-09-25T19:20:21.977Z,10.10
2022-09-25T19:22:48.445Z,8.50
2022-09-25T19:25:18.933Z,8.85
2022-09-25T19:27:48.021Z,8.55
2022-09-25T19:30:14.339Z,7.18
2022-09-25T19:32:40.991Z,9.13
2022-09-25T19:35:07.740Z,9.82
2022-09-25T19:37:34.179Z,9.13
2022-09-25T19:40:00.528Z,9.95
2022-09-25T19:42:28.074Z,11.23
2022-09-25T19:44:54.541Z,12.10
2022-09-25T19:47:21.188Z,13.02
2022-09-25T19:49:49.902Z,10.75
2022-09-25T19:52:16.388Z,11.77
2022-09-25T19:54:42.955Z,12.35
2022-09-25T19:57:09.297Z,12.35
2022-09-25T19:59:35.588Z,12.88
2022-09-25T20:02:02.251Z,12.70
2022-09-25T20:04:28.637Z,13.77
2022-09-25T20:06:55.161Z,14.20
2022-09-25T20:09:21.484Z,15.48
2022-09-25T20:11:47.849Z,17.38
2022-09-25T20:14:14.297Z,18.40
2022-09-25T20:16:42.726Z,18.25
2022-09-25T20:19:09.990Z,18.70
2022-09-25T20:21:38.791Z,18.38
2022-09-25T20:24:07.189Z,16.48
2022-09-25T20:26:33.622Z,17.52
2022-09-25T20:29:02.976Z,18.15
2022-09-25T20:31:31.408Z,16.40
2022-09-25T20:33:57.972Z,15.38
2022-09-25T20:36:25.329Z,16.45
2022-09-25T20:38:53.356Z,17.15
2022-09-25T20:41:21.429Z,16.30
2022-09-25T20:43:52.993Z,17.75
2022-09-25T20:46:20.074Z,18.67
2022-09-25T20:48:48.737Z,19.83
2022-09-25T20:51:17.351Z,17.48
2022-09-25T20:53:44.072Z,16.05
2022-09-25T20:56:12.794Z,15.65
2022-09-25T20:58:40.703Z,15.27
2022-09-25T21:01:09.875Z,15.20
2022-09-25T21:03:38.502Z,13.88
2022-09-25T21:06:08.064Z,11.38
2022-09-25T21:08:34.760Z,10.73
2022-09-25T21:11:01.548Z,10.40
2022-09-25T21:13:33.663Z,10.75
2022-09-25T21:16:11.536Z,10.93
2022-09-25T21:18:39.109Z,10.55
2022-09-25T21:21:08.455Z,11.07
2022-09-25T21:23:36.497Z,10.95
2022-09-25T21:26:09.621Z,10.48
2022-09-25T21:28:37.264Z,10.32
2022-09-25T21:31:09.981Z,9.52
2022-09-25T21:33:37.948Z,9.15
2022-09-25T21:36:05.525Z,8.32
2022-09-25T21:38:32.143Z,8.80
2022-09-25T21:41:02.742Z,8.90
2022-09-25T21:43:31.076Z,8.10
2022-09-25T21:46:27.980Z,9.43
2022-09-25T21:48:56.533Z,12.93
2022-09-25T21:51:25.547Z,11.38
2022-09-25T21:53:55.347Z,11.30
2022-09-25T21:56:24.508Z,13.73
2022-09-25T21:58:53.005Z,12.77
2022-09-25T22:01:22.112Z,13.30
2022-09-25T22:03:50.913Z,13.20
2022-09-25T22:06:20.490Z,14.45
2022-09-25T22:08:49.797Z,13.90
2022-09-25T22:11:17.292Z,11.98
2022-09-25T22:13:45.137Z,13.55
2022-09-25T22:16:20.821Z,13.38
2022-09-25T22:18:54.038Z,12.95
2022-09-25T22:21:22.689Z,13.05
2022-09-25T22:23:49.871Z,13.57
2022-09-25T22:26:21.094Z,12.75
2022-09-25T22:28:48.231Z,12.85
2022-09-25T22:31:16.370Z,13.20
2022-09-25T22:33:43.111Z,13.30
2022-09-25T22:36:11.078Z,13.95
2022-09-25T22:38:38.547Z,14.02
2022-09-25T22:41:10.403Z,13.10
2022-09-25T22:43:37.671Z,12.32
2022-09-25T22:46:04.610Z,12.02
2022-09-25T22:48:33.057Z,11.52
2022-09-25T22:51:03.839Z,12.63
2022-09-25T22:56:15.977Z,10.77
2022-09-25T22:58:43.581Z,10.85
2022-09-25T23:01:13.587Z,10.95
2022-09-25T23:03:40.027Z,10.55
2022-09-25T23:06:06.896Z,10.95
2022-09-25T23:08:33.439Z,10.05
2022-09-25T23:11:08.082Z,9.93
2022-09-25T23:13:35.011Z,9.02
2022-09-25T23:16:07.617Z,8.70
2022-09-25T23:18:37.119Z,9.98
2022-09-25T23:21:04.470Z,9.50
2022-09-25T23:23:31.409Z,8.52
2022-09-25T23:26:06.469Z,9.48
2022-09-25T23:28:34.715Z,8.75
2022-09-25T23:31:19.643Z,8.65
2022-09-25T23:33:47.316Z,8.40
2022-09-25T23:36:19.596Z,8.10
2022-09-25T23:38:47.511Z,7.72
2022-09-25T23:41:15.355Z,8.00
2022-09-25T23:43:42.030Z,7.88
2022-09-25T23:46:08.516Z,7.65
2022-09-25T23:48:35.023Z,8.43
2022-09-25T23:51:01.514Z,8.43
2022-09-25T23:53:31.146Z,8.18
2022-09-25T23:55:57.691Z,8.73
2022-09-25T23:58:23.997Z,7.30
